sensor_id;sensor_type;location;lat;lon;timestamp;temperature;humidity
41722;DHT22;27407;24.142;-110.310;2024-01-11T00:02:25;23.80;78.00
41722;DHT22;27407;24.142;-110.310;2024-01-11T00:04:51;23.70;83.10
41722;DHT22;27407;24.142;-110.310;2024-01-11T00:07:18;23.50;83.80
41722;DHT22;27407;24.142;-110.310;2024-01-11T00:09:44;23.40;84.20
41722;DHT22;27407;24.142;-110.310;2024-01-11T00:12:11;23.30;83.90
41722;DHT22;27407;24.142;-110.310;2024-01-11T00:14:38;23.30;86.10
41722;DHT22;27407;24.142;-110.310;2024-01-11T00:17:05;23.20;90.10
41722;DHT22;27407;24.142;-110.310;2024-01-11T00:19:31;23.20;90.60
41722;DHT22;27407;24.142;-110.310;2024-01-11T00:21:58;23.10;91.30
41722;DHT22;27407;24.142;-110.310;2024-01-11T00:24:25;23.00;92.40
41722;DHT22;27407;24.142;-110.310;2024-01-11T00:26:51;22.90;92.90
41722;DHT22;27407;24.142;-110.310;2024-01-11T00:29:18;22.90;93.60
41722;DHT22;27407;24.142;-110.310;2024-01-11T00:31:44;22.70;94.50
41722;DHT22;27407;24.142;-110.310;2024-01-11T00:34:11;22.50;95.50
41722;DHT22;27407;24.142;-110.310;2024-01-11T00:36:38;22.30;96.30
41722;DHT22;27407;24.142;-110.310;2024-01-11T00:39:04;22.10;97.70
41722;DHT22;27407;24.142;-110.310;2024-01-11T00:41:31;21.90;98.60
41722;DHT22;27407;24.142;-110.310;2024-01-11T00:43:58;21.70;99.20
41722;DHT22;27407;24.142;-110.310;2024-01-11T00:46:24;21.60;99.90
41722;DHT22;27407;24.142;-110.310;2024-01-11T00:48:51;21.50;99.90
41722;DHT22;27407;24.142;-110.310;2024-01-11T00:51:18;21.30;99.90
41722;DHT22;27407;24.142;-110.310;2024-01-11T00:53:44;21.20;99.90
41722;DHT22;27407;24.142;-110.310;2024-01-11T00:56:20;21.00;99.90
41722;DHT22;27407;24.142;-110.310;2024-01-11T00:58:47;20.80;99.90
41722;DHT22;27407;24.142;-110.310;2024-01-11T01:01:14;20.60;99.90
41722;DHT22;27407;24.142;-110.310;2024-01-11T01:03:40;20.40;99.90
41722;DHT22;27407;24.142;-110.310;2024-01-11T01:06:07;20.20;99.90
41722;DHT22;27407;24.142;-110.310;2024-01-11T01:08:34;20.10;99.90
41722;DHT22;27407;24.142;-110.310;2024-01-11T01:11:00;19.90;99.90
41722;DHT22;27407;24.142;-110.310;2024-01-11T01:13:27;19.90;99.90
41722;DHT22;27407;24.142;-110.310;2024-01-11T01:15:54;19.80;99.90
41722;DHT22;27407;24.142;-110.310;2024-01-11T01:18:21;19.80;99.90
41722;DHT22;27407;24.142;-110.310;2024-01-11T01:20:47;19.80;99.90
41722;DHT22;27407;24.142;-110.310;2024-01-11T01:23:14;19.80;99.90
41722;DHT22;27407;24.142;-110.310;2024-01-11T01:25:41;19.80;99.90
41722;DHT22;27407;24.142;-110.310;2024-01-11T01:28:07;19.80;99.90
41722;DHT22;27407;24.142;-110.310;2024-01-11T01:30:34;19.80;99.90
41722;DHT22;27407;24.142;-110.310;2024-01-11T01:33:00;19.80;99.90
41722;DHT22;27407;24.142;-110.310;2024-01-11T01:35:27;19.80;99.90
41722;DHT22;27407;24.142;-110.310;2024-01-11T01:37:54;19.70;99.90
41722;DHT22;27407;24.142;-110.310;2024-01-11T01:40:21;19.70;99.90
41722;DHT22;27407;24.142;-110.310;2024-01-11T01:42:48;19.70;99.90
41722;DHT22;27407;24.142;-110.310;2024-01-11T01:45:15;19.60;99.90
41722;DHT22;27407;24.142;-110.310;2024-01-11T01:47:43;19.60;99.90
41722;DHT22;27407;24.142;-110.310;2024-01-11T01:50:11;19.50;99.90
41722;DHT22;27407;24.142;-110.310;2024-01-11T01:52:40;19.50;99.90
41722;DHT22;27407;24.142;-110.310;2024-01-11T01:55:10;19.50;99.90
41722;DHT22;27407;24.142;-110.310;2024-01-11T01:57:37;19.50;99.90
41722;DHT22;27407;24.142;-110.310;2024-01-11T02:00:04;19.50;99.90
41722;DHT22;27407;24.142;-110.310;2024-01-11T02:02:32;19.40;99.90
41722;DHT22;27407;24.142;-110.310;2024-01-11T02:05:01;19.30;99.90
41722;DHT22;27407;24.142;-110.310;2024-01-11T02:07:28;19.40;99.90
41722;DHT22;27407;24.142;-110.310;2024-01-11T02:09:55;19.40;99.90
41722;DHT22;27407;24.142;-110.310;2024-01-11T02:12:24;19.40;99.90
41722;DHT22;27407;24.142;-110.310;2024-01-11T02:14:53;19.40;99.90
41722;DHT22;27407;24.142;-110.310;2024-01-11T02:17:20;19.30;99.90
41722;DHT22;27407;24.142;-110.310;2024-01-11T02:19:47;19.10;99.90
41722;DHT22;27407;24.142;-110.310;2024-01-11T02:22:23;19.10;99.90
41722;DHT22;27407;24.142;-110.310;2024-01-11T02:24:50;19.00;99.90
41722;DHT22;27407;24.142;-110.310;2024-01-11T02:27:19;19.00;99.90
41722;DHT22;27407;24.142;-110.310;2024-01-11T02:29:45;18.90;99.90
41722;DHT22;27407;24.142;-110.310;2024-01-11T02:32:12;18.90;99.90
41722;DHT22;27407;24.142;-110.310;2024-01-11T02:34:39;18.90;99.90
41722;DHT22;27407;24.142;-110.310;2024-01-11T02:37:06;18.70;99.90
41722;DHT22;27407;24.142;-110.310;2024-01-11T02:39:34;18.60;99.90
41722;DHT22;27407;24.142;-110.310;2024-01-11T02:42:00;18.60;99.90
41722;DHT22;27407;24.142;-110.310;2024-01-11T02:44:28;18.60;99.90
41722;DHT22;27407;24.142;-110.310;2024-01-11T02:46:54;18.50;99.90
41722;DHT22;27407;24.142;-110.310;2024-01-11T02:49:21;18.40;99.90
41722;DHT22;27407;24.142;-110.310;2024-01-11T02:51:48;18.50;99.90
41722;DHT22;27407;24.142;-110.310;2024-01-11T02:54:14;18.40;99.90
41722;DHT22;27407;24.142;-110.310;2024-01-11T02:56:41;18.40;99.90
41722;DHT22;27407;24.142;-110.310;2024-01-11T02:59:08;18.40;99.90
41722;DHT22;27407;24.142;-110.310;2024-01-11T03:01:35;18.30;99.90
41722;DHT22;27407;24.142;-110.310;2024-01-11T03:04:01;18.40;99.90
41722;DHT22;27407;24.142;-110.310;2024-01-11T03:06:28;18.60;99.90
41722;DHT22;27407;24.142;-110.310;2024-01-11T03:08:55;18.60;99.90
41722;DHT22;27407;24.142;-110.310;2024-01-11T03:11:21;18.70;99.90
41722;DHT22;27407;24.142;-110.310;2024-01-11T03:13:48;18.70;99.90
41722;DHT22;27407;24.142;-110.310;2024-01-11T03:16:15;18.70;99.90
41722;DHT22;27407;24.142;-110.310;2024-01-11T03:18:41;18.70;99.90
41722;DHT22;27407;24.142;-110.310;2024-01-11T03:21:08;18.70;99.90
41722;DHT22;27407;24.142;-110.310;2024-01-11T03:23:34;18.80;99.90
41722;DHT22;27407;24.142;-110.310;2024-01-11T03:26:01;18.70;99.90
41722;DHT22;27407;24.142;-110.310;2024-01-11T03:28:28;18.70;99.90
41722;DHT22;27407;24.142;-110.310;2024-01-11T03:30:54;18.70;99.90
41722;DHT22;27407;24.142;-110.310;2024-01-11T03:33:21;18.80;99.90
41722;DHT22;27407;24.142;-110.310;2024-01-11T03:35:48;18.80;99.90
41722;DHT22;27407;24.142;-110.310;2024-01-11T03:38:14;18.80;99.90
41722;DHT22;27407;24.142;-110.310;2024-01-11T03:40:41;18.80;99.90
41722;DHT22;27407;24.142;-110.310;2024-01-11T03:43:07;18.70;99.90
41722;DHT22;27407;24.142;-110.310;2024-01-11T03:45:34;18.70;99.90
41722;DHT22;27407;24.142;-110.310;2024-01-11T03:48:01;18.60;99.90
41722;DHT22;27407;24.142;-110.310;2024-01-11T03:50:27;18.60;99.90
41722;DHT22;27407;24.142;-110.310;2024-01-11T03:52:54;18.60;99.90
41722;DHT22;27407;24.142;-110.310;2024-01-11T03:55:21;18.60;99.90
41722;DHT22;27407;24.142;-110.310;2024-01-11T03:57:47;18.60;99.90
41722;DHT22;27407;24.142;-110.310;2024-01-11T04:00:14;18.50;99.90
41722;DHT22;27407;24.142;-110.310;2024-01-11T04:02:41;18.60;99.90
41722;DHT22;27407;24.142;-110.310;2024-01-11T04:05:08;18.70;99.90
41722;DHT22;27407;24.142;-110.310;2024-01-11T04:07:34;18.60;99.90
41722;DHT22;27407;24.142;-110.310;2024-01-11T04:10:01;18.60;99.90
41722;DHT22;27407;24.142;-110.310;2024-01-11T04:12:28;18.50;99.90
41722;DHT22;27407;24.142;-110.310;2024-01-11T04:14:54;18.40;99.90
41722;DHT22;27407;24.142;-110.310;2024-01-11T04:17:21;18.40;99.90
41722;DHT22;27407;24.142;-110.310;2024-01-11T04:19:48;18.40;99.90
41722;DHT22;27407;24.142;-110.310;2024-01-11T04:22:15;18.40;99.90
41722;DHT22;27407;24.142;-110.310;2024-01-11T04:24:42;18.30;99.90
41722;DHT22;27407;24.142;-110.310;2024-01-11T04:27:11;18.30;99.90
41722;DHT22;27407;24.142;-110.310;2024-01-11T04:29:37;18.30;99.90
41722;DHT22;27407;24.142;-110.310;2024-01-11T04:32:04;18.30;99.90
41722;DHT22;27407;24.142;-110.310;2024-01-11T04:34:31;18.20;99.90
41722;DHT22;27407;24.142;-110.310;2024-01-11T04:36:58;18.10;99.90
41722;DHT22;27407;24.142;-110.310;2024-01-11T04:39:24;18.00;99.90
41722;DHT22;27407;24.142;-110.310;2024-01-11T04:41:51;18.00;99.90
41722;DHT22;27407;24.142;-110.310;2024-01-11T04:44:18;18.00;99.90
41722;DHT22;27407;24.142;-110.310;2024-01-11T04:46:44;17.90;99.90
41722;DHT22;27407;24.142;-110.310;2024-01-11T04:49:11;17.80;99.90
41722;DHT22;27407;24.142;-110.310;2024-01-11T04:51:38;17.70;99.90
41722;DHT22;27407;24.142;-110.310;2024-01-11T04:54:04;17.50;99.90
41722;DHT22;27407;24.142;-110.310;2024-01-11T04:56:31;17.50;99.90
41722;DHT22;27407;24.142;-110.310;2024-01-11T04:58:58;17.40;99.90
41722;DHT22;27407;24.142;-110.310;2024-01-11T05:01:24;17.30;99.90
41722;DHT22;27407;24.142;-110.310;2024-01-11T05:03:51;17.30;99.90
41722;DHT22;27407;24.142;-110.310;2024-01-11T05:06:19;17.30;99.90
41722;DHT22;27407;24.142;-110.310;2024-01-11T05:08:52;17.30;99.90
41722;DHT22;27407;24.142;-110.310;2024-01-11T05:11:20;17.20;99.90
41722;DHT22;27407;24.142;-110.310;2024-01-11T05:13:48;17.30;99.90
41722;DHT22;27407;24.142;-110.310;2024-01-11T05:16:25;17.20;99.90
41722;DHT22;27407;24.142;-110.310;2024-01-11T05:18:53;17.40;99.90
41722;DHT22;27407;24.142;-110.310;2024-01-11T05:21:20;17.60;99.90
41722;DHT22;27407;24.142;-110.310;2024-01-11T05:23:47;17.70;99.90
41722;DHT22;27407;24.142;-110.310;2024-01-11T05:26:18;17.70;99.90
41722;DHT22;27407;24.142;-110.310;2024-01-11T05:28:45;17.70;99.90
41722;DHT22;27407;24.142;-110.310;2024-01-11T05:31:13;17.70;99.90
41722;DHT22;27407;24.142;-110.310;2024-01-11T05:33:43;17.80;99.90
41722;DHT22;27407;24.142;-110.310;2024-01-11T05:36:10;17.80;99.90
41722;DHT22;27407;24.142;-110.310;2024-01-11T05:38:38;17.80;99.90
41722;DHT22;27407;24.142;-110.310;2024-01-11T05:41:07;17.70;99.90
41722;DHT22;27407;24.142;-110.310;2024-01-11T05:43:34;17.70;99.90
41722;DHT22;27407;24.142;-110.310;2024-01-11T05:46:00;17.60;99.90
41722;DHT22;27407;24.142;-110.310;2024-01-11T05:48:28;17.60;99.90
41722;DHT22;27407;24.142;-110.310;2024-01-11T05:50:54;17.60;99.90
41722;DHT22;27407;24.142;-110.310;2024-01-11T05:53:21;17.50;99.90
41722;DHT22;27407;24.142;-110.310;2024-01-11T05:55:48;17.50;99.90
41722;DHT22;27407;24.142;-110.310;2024-01-11T05:58:15;17.40;99.90
41722;DHT22;27407;24.142;-110.310;2024-01-11T06:00:41;17.30;99.90
41722;DHT22;27407;24.142;-110.310;2024-01-11T06:03:08;17.20;99.90
41722;DHT22;27407;24.142;-110.310;2024-01-11T06:05:35;17.10;99.90
41722;DHT22;27407;24.142;-110.310;2024-01-11T06:08:01;17.00;99.90
41722;DHT22;27407;24.142;-110.310;2024-01-11T06:10:28;16.80;99.90
41722;DHT22;27407;24.142;-110.310;2024-01-11T06:12:55;16.80;99.90
41722;DHT22;27407;24.142;-110.310;2024-01-11T06:15:22;16.70;99.90
41722;DHT22;27407;24.142;-110.310;2024-01-11T06:17:49;16.60;99.90
41722;DHT22;27407;24.142;-110.310;2024-01-11T06:20:16;16.60;99.90
41722;DHT22;27407;24.142;-110.310;2024-01-11T06:22:42;16.50;99.90
41722;DHT22;27407;24.142;-110.310;2024-01-11T06:25:09;16.50;99.90
41722;DHT22;27407;24.142;-110.310;2024-01-11T06:27:35;16.60;99.90
41722;DHT22;27407;24.142;-110.310;2024-01-11T06:30:02;16.50;99.90
41722;DHT22;27407;24.142;-110.310;2024-01-11T06:32:29;16.50;99.90
41722;DHT22;27407;24.142;-110.310;2024-01-11T06:34:56;16.50;99.90
41722;DHT22;27407;24.142;-110.310;2024-01-11T06:37:22;16.40;99.90
41722;DHT22;27407;24.142;-110.310;2024-01-11T06:39:49;16.40;99.90
41722;DHT22;27407;24.142;-110.310;2024-01-11T06:42:16;16.40;99.90
41722;DHT22;27407;24.142;-110.310;2024-01-11T06:44:42;16.30;99.90
41722;DHT22;27407;24.142;-110.310;2024-01-11T06:47:09;16.40;99.90
41722;DHT22;27407;24.142;-110.310;2024-01-11T06:49:38;16.20;99.90
41722;DHT22;27407;24.142;-110.310;2024-01-11T06:52:08;16.20;99.90
41722;DHT22;27407;24.142;-110.310;2024-01-11T06:54:35;16.30;99.90
41722;DHT22;27407;24.142;-110.310;2024-01-11T06:57:01;16.10;99.90
41722;DHT22;27407;24.142;-110.310;2024-01-11T06:59:28;16.20;99.90
41722;DHT22;27407;24.142;-110.310;2024-01-11T07:01:54;16.10;99.90
41722;DHT22;27407;24.142;-110.310;2024-01-11T07:04:21;16.20;99.90
41722;DHT22;27407;24.142;-110.310;2024-01-11T07:06:48;16.00;99.90
41722;DHT22;27407;24.142;-110.310;2024-01-11T07:09:15;15.90;99.90
41722;DHT22;27407;24.142;-110.310;2024-01-11T07:11:43;15.90;99.90
41722;DHT22;27407;24.142;-110.310;2024-01-11T07:14:10;15.90;99.90
41722;DHT22;27407;24.142;-110.310;2024-01-11T07:16:37;15.90;99.90
41722;DHT22;27407;24.142;-110.310;2024-01-11T07:19:03;15.90;99.90
41722;DHT22;27407;24.142;-110.310;2024-01-11T07:21:30;15.90;99.90
41722;DHT22;27407;24.142;-110.310;2024-01-11T07:23:58;15.90;99.90
41722;DHT22;27407;24.142;-110.310;2024-01-11T07:26:26;16.00;99.90
41722;DHT22;27407;24.142;-110.310;2024-01-11T07:28:53;15.90;99.90
41722;DHT22;27407;24.142;-110.310;2024-01-11T07:31:22;15.90;99.90
41722;DHT22;27407;24.142;-110.310;2024-01-11T07:33:49;15.80;99.90
41722;DHT22;27407;24.142;-110.310;2024-01-11T07:36:16;15.70;99.90
41722;DHT22;27407;24.142;-110.310;2024-01-11T07:38:43;15.70;99.90
41722;DHT22;27407;24.142;-110.310;2024-01-11T07:41:10;15.60;99.90
41722;DHT22;27407;24.142;-110.310;2024-01-11T07:43:37;15.50;99.90
41722;DHT22;27407;24.142;-110.310;2024-01-11T07:46:04;15.40;99.90
41722;DHT22;27407;24.142;-110.310;2024-01-11T07:48:32;15.40;99.90
41722;DHT22;27407;24.142;-110.310;2024-01-11T07:51:00;15.30;99.90
41722;DHT22;27407;24.142;-110.310;2024-01-11T07:53:26;15.30;99.90
41722;DHT22;27407;24.142;-110.310;2024-01-11T07:55:53;15.30;99.90
41722;DHT22;27407;24.142;-110.310;2024-01-11T07:58:19;15.50;99.90
41722;DHT22;27407;24.142;-110.310;2024-01-11T08:00:47;15.50;99.90
41722;DHT22;27407;24.142;-110.310;2024-01-11T08:03:15;15.60;99.90
41722;DHT22;27407;24.142;-110.310;2024-01-11T08:05:42;15.70;99.90
41722;DHT22;27407;24.142;-110.310;2024-01-11T08:08:10;15.80;99.90
41722;DHT22;27407;24.142;-110.310;2024-01-11T08:10:37;15.90;99.90
41722;DHT22;27407;24.142;-110.310;2024-01-11T08:13:03;16.00;99.90
41722;DHT22;27407;24.142;-110.310;2024-01-11T08:15:30;16.10;99.90
41722;DHT22;27407;24.142;-110.310;2024-01-11T08:17:57;16.20;99.90
41722;DHT22;27407;24.142;-110.310;2024-01-11T08:20:24;16.20;99.90
41722;DHT22;27407;24.142;-110.310;2024-01-11T08:22:51;16.30;99.90
41722;DHT22;27407;24.142;-110.310;2024-01-11T08:25:18;16.40;99.90
41722;DHT22;27407;24.142;-110.310;2024-01-11T08:27:45;16.30;99.90
41722;DHT22;27407;24.142;-110.310;2024-01-11T08:30:12;16.30;99.90
41722;DHT22;27407;24.142;-110.310;2024-01-11T08:32:38;16.30;99.90
41722;DHT22;27407;24.142;-110.310;2024-01-11T08:35:09;16.30;99.90
41722;DHT22;27407;24.142;-110.310;2024-01-11T08:37:39;16.30;99.90
41722;DHT22;27407;24.142;-110.310;2024-01-11T08:40:06;16.30;99.90
41722;DHT22;27407;24.142;-110.310;2024-01-11T08:42:33;16.40;99.90
41722;DHT22;27407;24.142;-110.310;2024-01-11T08:45:00;16.30;99.90
41722;DHT22;27407;24.142;-110.310;2024-01-11T08:47:33;16.30;99.90
41722;DHT22;27407;24.142;-110.310;2024-01-11T08:50:00;16.30;99.90
41722;DHT22;27407;24.142;-110.310;2024-01-11T08:52:27;16.20;99.90
41722;DHT22;27407;24.142;-110.310;2024-01-11T08:54:54;16.20;99.90
41722;DHT22;27407;24.142;-110.310;2024-01-11T08:57:20;16.00;99.90
41722;DHT22;27407;24.142;-110.310;2024-01-11T08:59:47;15.90;99.90
41722;DHT22;27407;24.142;-110.310;2024-01-11T09:02:14;15.80;99.90
41722;DHT22;27407;24.142;-110.310;2024-01-11T09:04:40;15.60;99.90
41722;DHT22;27407;24.142;-110.310;2024-01-11T09:07:07;15.60;99.90
41722;DHT22;27407;24.142;-110.310;2024-01-11T09:09:34;15.40;99.90
41722;DHT22;27407;24.142;-110.310;2024-01-11T09:12:00;15.30;99.90
41722;DHT22;27407;24.142;-110.310;2024-01-11T09:14:27;15.20;99.90
41722;DHT22;27407;24.142;-110.310;2024-01-11T09:16:54;15.10;99.90
41722;DHT22;27407;24.142;-110.310;2024-01-11T09:19:21;15.00;99.90
41722;DHT22;27407;24.142;-110.310;2024-01-11T09:21:47;14.90;99.90
41722;DHT22;27407;24.142;-110.310;2024-01-11T09:24:14;14.80;99.90
41722;DHT22;27407;24.142;-110.310;2024-01-11T09:26:40;14.70;99.90
41722;DHT22;27407;24.142;-110.310;2024-01-11T09:29:07;14.60;99.90
41722;DHT22;27407;24.142;-110.310;2024-01-11T09:31:34;14.40;99.90
41722;DHT22;27407;24.142;-110.310;2024-01-11T09:34:01;14.40;99.90
41722;DHT22;27407;24.142;-110.310;2024-01-11T09:36:28;14.40;99.90
41722;DHT22;27407;24.142;-110.310;2024-01-11T09:38:54;14.30;99.90
41722;DHT22;27407;24.142;-110.310;2024-01-11T09:41:21;14.20;99.90
41722;DHT22;27407;24.142;-110.310;2024-01-11T09:43:54;14.10;99.90
41722;DHT22;27407;24.142;-110.310;2024-01-11T09:46:20;14.00;99.90
41722;DHT22;27407;24.142;-110.310;2024-01-11T09:48:49;14.00;99.90
41722;DHT22;27407;24.142;-110.310;2024-01-11T09:51:16;13.90;99.90
41722;DHT22;27407;24.142;-110.310;2024-01-11T09:53:43;13.90;99.90
41722;DHT22;27407;24.142;-110.310;2024-01-11T09:56:10;13.90;99.90
41722;DHT22;27407;24.142;-110.310;2024-01-11T09:58:39;13.80;99.90
41722;DHT22;27407;24.142;-110.310;2024-01-11T10:01:09;13.80;99.90
41722;DHT22;27407;24.142;-110.310;2024-01-11T10:03:40;13.80;99.90
41722;DHT22;27407;24.142;-110.310;2024-01-11T10:06:07;13.70;99.90
41722;DHT22;27407;24.142;-110.310;2024-01-11T10:08:36;13.70;99.90
41722;DHT22;27407;24.142;-110.310;2024-01-11T10:11:03;13.60;99.90
41722;DHT22;27407;24.142;-110.310;2024-01-11T10:13:31;13.50;99.90
41722;DHT22;27407;24.142;-110.310;2024-01-11T10:16:13;13.40;99.90
41722;DHT22;27407;24.142;-110.310;2024-01-11T10:18:41;13.30;99.90
41722;DHT22;27407;24.142;-110.310;2024-01-11T10:21:08;13.10;99.90
41722;DHT22;27407;24.142;-110.310;2024-01-11T10:23:38;13.10;99.90
41722;DHT22;27407;24.142;-110.310;2024-01-11T10:26:07;12.90;99.90
41722;DHT22;27407;24.142;-110.310;2024-01-11T10:28:34;13.00;99.90
41722;DHT22;27407;24.142;-110.310;2024-01-11T10:31:04;12.90;99.90
41722;DHT22;27407;24.142;-110.310;2024-01-11T10:33:34;12.90;99.90
41722;DHT22;27407;24.142;-110.310;2024-01-11T10:36:02;12.80;99.90
41722;DHT22;27407;24.142;-110.310;2024-01-11T10:38:30;12.70;99.90
41722;DHT22;27407;24.142;-110.310;2024-01-11T10:41:00;12.70;99.90
41722;DHT22;27407;24.142;-110.310;2024-01-11T10:43:32;12.70;99.90
41722;DHT22;27407;24.142;-110.310;2024-01-11T10:46:00;12.70;99.90
41722;DHT22;27407;24.142;-110.310;2024-01-11T10:48:31;12.60;99.90
41722;DHT22;27407;24.142;-110.310;2024-01-11T10:51:01;12.60;99.90
41722;DHT22;27407;24.142;-110.310;2024-01-11T10:53:44;12.50;99.90
41722;DHT22;27407;24.142;-110.310;2024-01-11T10:56:15;12.50;99.90
41722;DHT22;27407;24.142;-110.310;2024-01-11T10:58:43;12.60;99.90
41722;DHT22;27407;24.142;-110.310;2024-01-11T11:01:11;12.60;99.90
41722;DHT22;27407;24.142;-110.310;2024-01-11T11:03:39;12.60;99.90
41722;DHT22;27407;24.142;-110.310;2024-01-11T11:06:09;12.70;99.90
41722;DHT22;27407;24.142;-110.310;2024-01-11T11:08:36;12.70;99.90
41722;DHT22;27407;24.142;-110.310;2024-01-11T11:11:04;12.70;99.90
41722;DHT22;27407;24.142;-110.310;2024-01-11T11:13:35;12.80;99.90
41722;DHT22;27407;24.142;-110.310;2024-01-11T11:16:01;12.90;99.90
41722;DHT22;27407;24.142;-110.310;2024-01-11T11:18:30;13.00;99.90
41722;DHT22;27407;24.142;-110.310;2024-01-11T11:20:58;13.20;99.90
41722;DHT22;27407;24.142;-110.310;2024-01-11T11:23:24;13.30;99.90
41722;DHT22;27407;24.142;-110.310;2024-01-11T11:25:54;13.40;99.90
41722;DHT22;27407;24.142;-110.310;2024-01-11T11:28:24;13.50;99.90
41722;DHT22;27407;24.142;-110.310;2024-01-11T11:30:53;13.50;99.90
41722;DHT22;27407;24.142;-110.310;2024-01-11T11:33:21;13.50;99.90
41722;DHT22;27407;24.142;-110.310;2024-01-11T11:35:57;13.50;99.90
41722;DHT22;27407;24.142;-110.310;2024-01-11T11:38:31;13.60;99.90
41722;DHT22;27407;24.142;-110.310;2024-01-11T11:40:58;13.50;99.90
41722;DHT22;27407;24.142;-110.310;2024-01-11T11:43:27;13.50;99.90
41722;DHT22;27407;24.142;-110.310;2024-01-11T11:45:54;13.40;99.90
41722;DHT22;27407;24.142;-110.310;2024-01-11T11:51:09;13.40;99.90
41722;DHT22;27407;24.142;-110.310;2024-01-11T11:53:40;13.40;99.90
41722;DHT22;27407;24.142;-110.310;2024-01-11T11:56:08;13.30;99.90
41722;DHT22;27407;24.142;-110.310;2024-01-11T11:58:53;13.20;99.90
41722;DHT22;27407;24.142;-110.310;2024-01-11T12:01:21;13.20;99.90
41722;DHT22;27407;24.142;-110.310;2024-01-11T12:03:47;13.30;99.90
41722;DHT22;27407;24.142;-110.310;2024-01-11T12:06:19;13.30;99.90
41722;DHT22;27407;24.142;-110.310;2024-01-11T12:08:48;13.30;99.90
41722;DHT22;27407;24.142;-110.310;2024-01-11T12:11:17;13.30;99.90
41722;DHT22;27407;24.142;-110.310;2024-01-11T12:13:44;13.30;99.90
41722;DHT22;27407;24.142;-110.310;2024-01-11T12:16:11;13.30;99.90
41722;DHT22;27407;24.142;-110.310;2024-01-11T12:18:39;13.20;99.90
41722;DHT22;27407;24.142;-110.310;2024-01-11T12:21:05;13.10;99.90
41722;DHT22;27407;24.142;-110.310;2024-01-11T12:23:34;13.00;99.90
41722;DHT22;27407;24.142;-110.310;2024-01-11T12:26:06;13.20;99.90
41722;DHT22;27407;24.142;-110.310;2024-01-11T12:28:38;13.00;99.90
41722;DHT22;27407;24.142;-110.310;2024-01-11T12:31:05;12.80;99.90
41722;DHT22;27407;24.142;-110.310;2024-01-11T12:33:32;12.70;99.90
41722;DHT22;27407;24.142;-110.310;2024-01-11T12:36:01;12.60;99.90
41722;DHT22;27407;24.142;-110.310;2024-01-11T12:38:27;12.60;99.90
41722;DHT22;27407;24.142;-110.310;2024-01-11T12:40:54;12.50;99.90
41722;DHT22;27407;24.142;-110.310;2024-01-11T12:43:21;12.50;99.90
41722;DHT22;27407;24.142;-110.310;2024-01-11T12:45:47;12.30;99.90
41722;DHT22;27407;24.142;-110.310;2024-01-11T12:48:14;12.20;99.90
41722;DHT22;27407;24.142;-110.310;2024-01-11T12:50:42;12.10;99.90
41722;DHT22;27407;24.142;-110.310;2024-01-11T12:53:09;12.00;99.90
41722;DHT22;27407;24.142;-110.310;2024-01-11T12:55:47;11.90;99.90
41722;DHT22;27407;24.142;-110.310;2024-01-11T12:58:19;11.70;99.90
41722;DHT22;27407;24.142;-110.310;2024-01-11T13:00:47;11.50;99.90
41722;DHT22;27407;24.142;-110.310;2024-01-11T13:03:15;11.40;99.90
41722;DHT22;27407;24.142;-110.310;2024-01-11T13:05:42;11.30;99.90
41722;DHT22;27407;24.142;-110.310;2024-01-11T13:08:09;11.20;99.90
41722;DHT22;27407;24.142;-110.310;2024-01-11T13:10:37;11.10;99.90
41722;DHT22;27407;24.142;-110.310;2024-01-11T13:13:04;11.10;99.90
41722;DHT22;27407;24.142;-110.310;2024-01-11T13:15:34;11.10;99.90
41722;DHT22;27407;24.142;-110.310;2024-01-11T13:18:02;11.00;99.90
41722;DHT22;27407;24.142;-110.310;2024-01-11T13:20:29;10.90;99.90
41722;DHT22;27407;24.142;-110.310;2024-01-11T13:23:15;10.80;99.90
41722;DHT22;27407;24.142;-110.310;2024-01-11T13:25:44;10.80;99.90
41722;DHT22;27407;24.142;-110.310;2024-01-11T13:28:11;10.70;99.90
41722;DHT22;27407;24.142;-110.310;2024-01-11T13:30:42;10.60;99.90
41722;DHT22;27407;24.142;-110.310;2024-01-11T13:33:09;10.60;99.90
41722;DHT22;27407;24.142;-110.310;2024-01-11T13:35:40;10.60;99.90
41722;DHT22;27407;24.142;-110.310;2024-01-11T13:38:10;10.60;99.90
41722;DHT22;27407;24.142;-110.310;2024-01-11T13:40:37;10.50;99.90
41722;DHT22;27407;24.142;-110.310;2024-01-11T13:43:05;10.50;99.90
41722;DHT22;27407;24.142;-110.310;2024-01-11T13:45:32;10.50;99.90
41722;DHT22;27407;24.142;-110.310;2024-01-11T13:47:59;10.40;99.90
41722;DHT22;27407;24.142;-110.310;2024-01-11T13:50:26;10.40;99.90
41722;DHT22;27407;24.142;-110.310;2024-01-11T13:52:53;10.40;99.90
41722;DHT22;27407;24.142;-110.310;2024-01-11T13:55:20;10.30;99.90
41722;DHT22;27407;24.142;-110.310;2024-01-11T13:57:48;10.30;99.90
41722;DHT22;27407;24.142;-110.310;2024-01-11T14:00:16;10.40;99.90
41722;DHT22;27407;24.142;-110.310;2024-01-11T14:02:45;10.50;99.90
41722;DHT22;27407;24.142;-110.310;2024-01-11T14:05:12;10.50;99.90
41722;DHT22;27407;24.142;-110.310;2024-01-11T14:07:42;10.70;99.90
41722;DHT22;27407;24.142;-110.310;2024-01-11T14:10:09;11.10;99.90
41722;DHT22;27407;24.142;-110.310;2024-01-11T14:12:36;11.80;99.90
41722;DHT22;27407;24.142;-110.310;2024-01-11T14:15:07;12.50;99.90
41722;DHT22;27407;24.142;-110.310;2024-01-11T14:17:39;13.10;99.90
41722;DHT22;27407;24.142;-110.310;2024-01-11T14:20:06;13.30;99.90
41722;DHT22;27407;24.142;-110.310;2024-01-11T14:22:39;13.40;99.90
41722;DHT22;27407;24.142;-110.310;2024-01-11T14:25:09;13.60;99.90
41722;DHT22;27407;24.142;-110.310;2024-01-11T14:27:39;13.80;99.90
41722;DHT22;27407;24.142;-110.310;2024-01-11T14:30:08;14.00;99.90
41722;DHT22;27407;24.142;-110.310;2024-01-11T14:32:35;14.20;99.90
41722;DHT22;27407;24.142;-110.310;2024-01-11T14:35:03;14.30;99.90
41722;DHT22;27407;24.142;-110.310;2024-01-11T14:37:35;14.40;99.90
41722;DHT22;27407;24.142;-110.310;2024-01-11T14:40:03;14.40;99.90
41722;DHT22;27407;24.142;-110.310;2024-01-11T14:42:30;14.60;99.90
41722;DHT22;27407;24.142;-110.310;2024-01-11T14:45:04;14.70;99.90
41722;DHT22;27407;24.142;-110.310;2024-01-11T14:47:32;14.70;99.90
41722;DHT22;27407;24.142;-110.310;2024-01-11T14:49:59;14.80;99.90
41722;DHT22;27407;24.142;-110.310;2024-01-11T14:52:26;15.00;99.90
41722;DHT22;27407;24.142;-110.310;2024-01-11T14:54:53;15.20;99.90